createdAt,value
2022-10-17T00:00:50.979Z,101074.75
2022-10-17T00:03:18.505Z,101045.09
2022-10-17T00:05:47.472Z,101069.53
2022-10-17T00:08:17.173Z,101061.41
2022-10-17T00:10:44.475Z,101058.50
2022-10-17T00:13:12.655Z,101065.13
2022-10-17T00:15:44.885Z,101059.31
2022-10-17T00:18:12.073Z,101062.28
2022-10-17T00:20:39.190Z,101062.28
2022-10-17T00:23:06.218Z,101049.38
2022-10-17T00:25:33.271Z,101057.50
2022-10-17T00:28:00.397Z,101054.63
2022-10-17T00:30:27.473Z,101041.97
2022-10-17T00:32:54.553Z,101045.19
2022-10-17T00:35:21.610Z,101039.34
2022-10-17T00:37:48.917Z,101034.06
2022-10-17T00:40:17.976Z,101036.47
2022-10-17T00:42:47.887Z,101026.59
2022-10-17T00:45:23.657Z,101030.16
2022-10-17T00:48:00.334Z,101020.50
2022-10-17T00:50:28.401Z,101016.19
2022-10-17T00:53:01.399Z,101003.75
2022-10-17T00:55:32.102Z,101008.75
2022-10-17T00:58:02.726Z,101012.91
2022-10-17T01:00:29.958Z,101006.13
2022-10-17T01:02:58.606Z,100988.53
2022-10-17T01:05:26.033Z,100994.19
2022-10-17T01:07:54.192Z,100991.78
2022-10-17T01:10:24.163Z,100982.31
2022-10-17T01:13:00.117Z,100988.19
2022-10-17T01:15:55.481Z,100982.94
2022-10-17T01:18:37.550Z,100970.44
2022-10-17T01:22:09.575Z,100965.97
2022-10-17T01:24:52.436Z,100970.28
2022-10-17T01:27:41.451Z,100966.22
2022-10-17T01:30:11.550Z,100962.25
2022-10-17T01:32:47.589Z,100962.84
2022-10-17T01:35:27.994Z,100960.22
2022-10-17T01:38:41.714Z,100950.69
2022-10-17T01:41:28.955Z,100952.84
2022-10-17T01:44:37.194Z,100953.31
2022-10-17T01:47:09.419Z,100934.66
2022-10-17T01:49:38.835Z,100920.22
2022-10-17T01:52:13.655Z,100927.47
2022-10-17T01:54:45.630Z,100933.69
2022-10-17T01:57:28.997Z,100933.97
2022-10-17T01:59:57.363Z,100912.22
2022-10-17T02:02:27.056Z,100925.13
2022-10-17T02:04:57.437Z,100926.91
2022-10-17T02:07:24.581Z,100903.13
2022-10-17T02:09:53.165Z,100921.53
2022-10-17T02:12:38.984Z,100892.38
2022-10-17T02:15:43.158Z,100920.09
2022-10-17T02:18:30.438Z,100923.94
2022-10-17T02:21:03.912Z,100917.13
2022-10-17T02:23:36.610Z,100926.56
2022-10-17T02:26:06.380Z,100921.78
2022-10-17T02:28:39.504Z,100927.47
2022-10-17T02:31:13.912Z,100926.47
2022-10-17T02:33:58.367Z,100916.72
2022-10-17T02:36:48.217Z,100907.81
2022-10-17T02:39:17.014Z,100903.38
2022-10-17T02:41:46.149Z,100912.53
2022-10-17T02:44:13.634Z,100900.34
2022-10-17T02:46:42.693Z,100912.28
2022-10-17T02:49:25.116Z,100883.75
2022-10-17T02:52:08.379Z,100916.00
2022-10-17T02:55:04.897Z,100909.84
2022-10-17T02:57:39.975Z,100896.50
2022-10-17T03:00:11.127Z,100897.13
2022-10-17T03:02:44.070Z,100892.63
2022-10-17T03:05:12.922Z,100894.78
2022-10-17T03:07:39.998Z,100891.38
2022-10-17T03:10:07.711Z,100882.34
2022-10-17T03:12:34.899Z,100870.75
2022-10-17T03:15:02.543Z,100840.78
2022-10-17T03:17:31.170Z,100871.88
2022-10-17T03:19:59.299Z,100861.97
2022-10-17T03:22:26.553Z,100864.59
2022-10-17T03:24:53.934Z,100876.09
2022-10-17T03:27:20.993Z,100861.06
2022-10-17T03:29:48.185Z,100861.28
2022-10-17T03:32:16.463Z,100861.28
2022-10-17T03:34:43.818Z,100848.00
2022-10-17T03:37:10.886Z,100844.09
2022-10-17T03:39:39.691Z,100843.84
2022-10-17T03:42:06.901Z,100820.94
2022-10-17T03:44:34.030Z,100819.28
2022-10-17T03:47:01.153Z,100833.69
2022-10-17T03:49:28.269Z,100828.56
2022-10-17T03:51:55.376Z,100822.88
2022-10-17T03:54:22.457Z,100827.06
2022-10-17T03:56:49.571Z,100822.41
2022-10-17T03:59:19.245Z,100817.25
2022-10-17T04:01:56.289Z,100790.16
2022-10-17T04:04:23.411Z,100824.31
2022-10-17T04:06:50.678Z,100823.09
2022-10-17T04:09:17.981Z,100826.94
2022-10-17T04:12:00.384Z,100811.75
2022-10-17T04:14:27.638Z,100818.22
2022-10-17T04:16:55.088Z,100809.28
2022-10-17T04:19:22.157Z,100806.16
2022-10-17T04:21:50.184Z,100793.50
2022-10-17T04:24:17.997Z,100806.16
2022-10-17T04:26:51.320Z,100810.69
2022-10-17T04:29:19.751Z,100812.84
2022-10-17T04:31:51.087Z,100814.75
2022-10-17T04:34:22.665Z,100790.03
2022-10-17T04:36:49.808Z,100790.63
2022-10-17T04:39:17.111Z,100786.31
2022-10-17T04:41:45.532Z,100787.31
2022-10-17T04:44:12.758Z,100777.41
2022-10-17T04:46:44.416Z,100781.34
2022-10-17T04:49:11.473Z,100782.03
2022-10-17T04:51:41.491Z,100777.00
2022-10-17T04:54:21.396Z,100781.34
2022-10-17T04:56:53.921Z,100780.13
2022-10-17T04:59:21.017Z,100780.41
2022-10-17T05:01:55.849Z,100776.06
2022-10-17T05:04:24.839Z,100780.97
2022-10-17T05:06:53.203Z,100784.66
2022-10-17T05:09:40.508Z,100762.03
2022-10-17T05:12:10.267Z,100764.88
2022-10-17T05:14:40.423Z,100773.69
2022-10-17T05:17:07.899Z,100766.16
2022-10-17T05:19:35.631Z,100774.16
2022-10-17T05:22:02.794Z,100751.81
2022-10-17T05:24:29.896Z,100757.47
2022-10-17T05:26:56.950Z,100755.78
2022-10-17T05:29:24.134Z,100750.00
2022-10-17T05:31:56.772Z,100765.84
2022-10-17T05:34:25.158Z,100751.50
2022-10-17T05:36:52.317Z,100746.59
2022-10-17T05:39:23.390Z,100747.41
2022-10-17T05:41:52.543Z,100742.72
2022-10-17T05:44:19.846Z,100732.78
2022-10-17T05:46:53.379Z,100731.88
2022-10-17T05:49:33.029Z,100744.75
2022-10-17T05:52:07.780Z,100731.06
2022-10-17T05:54:45.608Z,100731.06
2022-10-17T05:57:13.084Z,100722.84
2022-10-17T05:59:41.285Z,100712.41
2022-10-17T06:02:13.326Z,100711.38
2022-10-17T06:04:45.604Z,100699.66
2022-10-17T06:07:13.962Z,100696.31
2022-10-17T06:09:43.206Z,100699.78
2022-10-17T06:12:11.122Z,100685.16
2022-10-17T06:14:38.240Z,100698.50
2022-10-17T06:17:07.389Z,100686.28
2022-10-17T06:19:36.811Z,100706.56
2022-10-17T06:22:04.083Z,100669.78
2022-10-17T06:24:32.216Z,100691.25
2022-10-17T06:27:05.863Z,100689.00
2022-10-17T06:29:36.946Z,100681.63
2022-10-17T06:32:04.175Z,100681.31
2022-10-17T06:34:32.581Z,100681.31
2022-10-17T06:37:00.680Z,100690.16
2022-10-17T06:39:33.821Z,100695.44
2022-10-17T06:42:06.286Z,100701.84
2022-10-17T06:44:44.954Z,100694.53
2022-10-17T06:47:32.624Z,100696.63
2022-10-17T06:50:05.890Z,100688.84
2022-10-17T06:52:42.719Z,100683.59
2022-10-17T06:55:28.336Z,100676.75
2022-10-17T06:58:29.210Z,100662.38
2022-10-17T07:01:11.658Z,100655.59
2022-10-17T07:03:41.051Z,100648.59
2022-10-17T07:06:08.408Z,100635.53
2022-10-17T07:08:35.619Z,100648.09
2022-10-17T07:11:11.666Z,100665.75
2022-10-17T07:13:39.400Z,100658.78
2022-10-17T07:16:08.045Z,100659.59
2022-10-17T07:18:36.869Z,100670.22
2022-10-17T07:21:04.139Z,100633.81
2022-10-17T07:23:32.179Z,100644.75
2022-10-17T07:26:07.341Z,100640.88
2022-10-17T07:28:37.042Z,100629.53
2022-10-17T07:31:15.062Z,100639.75
2022-10-17T07:33:43.144Z,100631.94
2022-10-17T07:36:11.399Z,100636.94
2022-10-17T07:38:39.283Z,100617.81
2022-10-17T07:41:08.621Z,100621.00
2022-10-17T07:43:36.933Z,100627.81
2022-10-17T07:46:05.974Z,100614.91
2022-10-17T07:48:35.034Z,100618.06
2022-10-17T07:51:04.231Z,100609.44
2022-10-17T07:53:31.621Z,100627.03
2022-10-17T07:55:58.831Z,100623.34
2022-10-17T07:58:26.021Z,100629.56
2022-10-17T08:00:53.173Z,100630.97
2022-10-17T08:03:20.386Z,100617.22
2022-10-17T08:05:47.515Z,100624.72
2022-10-17T08:08:14.702Z,100596.97
2022-10-17T08:10:43.367Z,100625.28
2022-10-17T08:13:10.456Z,100625.81
2022-10-17T08:15:38.913Z,100609.66
2022-10-17T08:18:05.947Z,100627.03
2022-10-17T08:20:33.120Z,100611.13
2022-10-17T08:23:00.259Z,100605.47
2022-10-17T08:25:27.314Z,100604.31
2022-10-17T08:27:54.392Z,100575.56
2022-10-17T08:30:21.520Z,100621.22
2022-10-17T08:32:48.654Z,100602.16
2022-10-17T08:35:15.796Z,100592.97
2022-10-17T08:37:42.995Z,100598.75
2022-10-17T08:40:27.659Z,100605.53
2022-10-17T08:43:15.683Z,100602.78
2022-10-17T08:45:47.007Z,100607.13
2022-10-17T08:48:17.998Z,100623.09
2022-10-17T08:50:59.427Z,100616.88
2022-10-17T08:53:41.016Z,100596.59
2022-10-17T08:56:20.022Z,100582.25
2022-10-17T08:58:52.224Z,100593.41
2022-10-17T09:01:50.031Z,100600.69
2022-10-17T09:04:46.877Z,100598.41
2022-10-17T09:07:20.186Z,100596.81
2022-10-17T09:10:05.876Z,100618.34
2022-10-17T09:12:44.243Z,100617.78
2022-10-17T09:15:40.277Z,100605.97
2022-10-17T09:18:21.194Z,100598.50
2022-10-17T09:20:54.191Z,100609.81
2022-10-17T09:23:30.462Z,100614.72
2022-10-17T09:26:00.115Z,100596.84
2022-10-17T09:28:37.714Z,100598.28
2022-10-17T09:31:11.486Z,100595.78
2022-10-17T09:33:54.194Z,100603.25
2022-10-17T09:36:30.402Z,100591.22
2022-10-17T09:38:59.890Z,100574.16
2022-10-17T09:41:50.274Z,100617.13
2022-10-17T09:44:24.731Z,100623.13
2022-10-17T09:47:32.226Z,100616.38
2022-10-17T09:49:59.319Z,100621.34
2022-10-17T09:52:30.806Z,100597.63
2022-10-17T09:55:03.763Z,100582.00
2022-10-17T09:57:53.517Z,100583.97
2022-10-17T10:00:24.280Z,100585.06
2022-10-17T10:02:51.439Z,100583.28
2022-10-17T10:05:20.609Z,100582.41
2022-10-17T10:08:06.406Z,100580.03
2022-10-17T10:10:34.139Z,100561.63
2022-10-17T10:13:18.431Z,100566.13
2022-10-17T10:15:47.579Z,100527.41
2022-10-17T10:18:26.996Z,100556.09
2022-10-17T10:21:10.626Z,100550.53
2022-10-17T10:23:40.488Z,100552.84
2022-10-17T10:26:29.914Z,100550.91
2022-10-17T10:29:02.223Z,100545.69
2022-10-17T10:31:33.724Z,100541.69
2022-10-17T10:34:12.700Z,100529.56
2022-10-17T10:36:55.360Z,100534.81
2022-10-17T10:39:35.175Z,100529.56
2022-10-17T10:42:05.632Z,100520.47
2022-10-17T10:44:34.055Z,100513.34
2022-10-17T10:47:23.786Z,100502.03
2022-10-17T10:49:53.020Z,100473.88
2022-10-17T10:52:29.950Z,100512.22
2022-10-17T10:55:24.623Z,100520.50
2022-10-17T10:57:56.982Z,100531.47
2022-10-17T11:00:27.934Z,100517.97
2022-10-17T11:03:15.183Z,100506.34
2022-10-17T11:05:51.641Z,100507.66
2022-10-17T11:08:27.191Z,100502.81
2022-10-17T11:11:17.979Z,100491.75
2022-10-17T11:14:13.058Z,100486.25
2022-10-17T11:17:02.191Z,100482.34
2022-10-17T11:19:44.358Z,100496.72
2022-10-17T11:22:38.722Z,100491.34
2022-10-17T11:25:22.362Z,100489.56
2022-10-17T11:27:49.535Z,100484.56
2022-10-17T11:30:17.631Z,100467.66
2022-10-17T11:32:49.173Z,100482.34
2022-10-17T11:35:38.848Z,100468.78
2022-10-17T11:38:05.993Z,100470.00
2022-10-17T11:40:39.303Z,100468.75
2022-10-17T11:43:27.576Z,100476.50
2022-10-17T11:46:03.494Z,100480.66
2022-10-17T11:48:41.193Z,100479.28
2022-10-17T11:54:15.455Z,100463.53
2022-10-17T11:57:00.477Z,100459.41
2022-10-17T11:59:54.523Z,100454.72
2022-10-17T12:03:01.991Z,100442.84
2022-10-17T12:05:42.263Z,100450.00
2022-10-17T12:08:34.992Z,100443.78
2022-10-17T12:11:28.447Z,100443.09
2022-10-17T12:13:56.936Z,100433.13
2022-10-17T12:16:23.973Z,100433.41
2022-10-17T12:19:11.225Z,100423.69
2022-10-17T12:22:03.441Z,100437.25
2022-10-17T12:24:45.188Z,100433.41
2022-10-17T12:27:23.612Z,100429.81
2022-10-17T12:29:58.545Z,100424.69
2022-10-17T12:32:30.209Z,100435.88
2022-10-17T12:35:04.078Z,100427.25
2022-10-17T12:37:43.335Z,100421.31
2022-10-17T12:40:35.260Z,100430.09
2022-10-17T12:43:28.408Z,100419.00
2022-10-17T12:46:00.734Z,100422.75
2022-10-17T12:48:33.890Z,100431.88
2022-10-17T12:51:34.242Z,100445.28
2022-10-17T12:54:15.151Z,100466.53
2022-10-17T12:56:44.360Z,100446.94
2022-10-17T12:59:22.485Z,100445.31
2022-10-17T13:01:55.537Z,100445.84
2022-10-17T13:04:23.365Z,100466.22
2022-10-17T13:06:56.572Z,100471.06
2022-10-17T13:09:29.791Z,100456.63
2022-10-17T13:12:00.913Z,100472.94
2022-10-17T13:14:29.777Z,100482.06
2022-10-17T13:16:59.353Z,100500.31
2022-10-17T13:19:31.810Z,100507.19
2022-10-17T13:22:06.352Z,100512.22
2022-10-17T13:24:40.414Z,100523.97
2022-10-17T13:27:23.633Z,100525.78
2022-10-17T13:29:50.830Z,100524.16
2022-10-17T13:32:18.361Z,100524.56
2022-10-17T13:34:45.398Z,100528.31
2022-10-17T13:37:19.458Z,100513.34
2022-10-17T13:39:55.603Z,100475.13
2022-10-17T13:42:29.493Z,100505.03
2022-10-17T13:44:58.537Z,100511.00
2022-10-17T13:47:32.846Z,100501.69
2022-10-17T13:50:01.028Z,100496.38
2022-10-17T13:52:30.571Z,100492.59
2022-10-17T13:55:17.436Z,100492.66
2022-10-17T13:57:44.927Z,100492.59
2022-10-17T14:00:23.180Z,100473.00
2022-10-17T14:02:50.384Z,100487.31
2022-10-17T14:05:20.331Z,100472.19
2022-10-17T14:08:13.034Z,100462.78
2022-10-17T14:10:43.483Z,100474.47
2022-10-17T14:13:28.700Z,100469.16
2022-10-17T14:16:00.074Z,100461.13
2022-10-17T14:18:36.923Z,100463.09
2022-10-17T14:24:13.031Z,100452.56
2022-10-17T14:26:53.577Z,100436.34
2022-10-17T14:29:24.671Z,100453.66
2022-10-17T14:32:16.113Z,100449.38
2022-10-17T14:34:43.267Z,100449.75
2022-10-17T14:37:13.166Z,100456.31
2022-10-17T14:39:40.377Z,100451.44
2022-10-17T14:42:07.523Z,100460.59
2022-10-17T14:44:35.982Z,100454.34
2022-10-17T14:47:30.246Z,100463.22
2022-10-17T14:50:03.953Z,100455.34
2022-10-17T14:52:34.948Z,100456.03
2022-10-17T14:55:25.586Z,100456.16
2022-10-17T14:57:52.743Z,100422.34
2022-10-17T15:00:21.280Z,100449.63
2022-10-17T15:02:49.884Z,100458.66
2022-10-17T15:05:17.455Z,100454.50
2022-10-17T15:07:44.517Z,100445.34
2022-10-17T15:10:34.595Z,100465.03
2022-10-17T15:13:27.047Z,100459.19
2022-10-17T15:15:52.157Z,100457.81
2022-10-17T15:18:19.464Z,100481.91
2022-10-17T15:20:46.607Z,100495.19
2022-10-17T15:23:13.662Z,100485.47
2022-10-17T15:25:40.920Z,100482.59
2022-10-17T15:28:10.944Z,100476.78
2022-10-17T15:30:38.112Z,100478.06
2022-10-17T15:33:05.324Z,100470.56
2022-10-17T15:35:32.559Z,100480.69
2022-10-17T15:37:59.606Z,100490.78
2022-10-17T15:40:29.401Z,100493.28
2022-10-17T15:42:57.427Z,100491.34
2022-10-17T15:45:25.129Z,100480.81
2022-10-17T15:47:59.440Z,100481.38
2022-10-17T15:50:29.064Z,100490.38
2022-10-17T15:52:56.171Z,100497.47
2022-10-17T15:55:23.428Z,100491.88
2022-10-17T15:57:50.962Z,100487.44
2022-10-17T16:00:22.397Z,100471.66
2022-10-17T16:02:50.195Z,100493.84
2022-10-17T16:05:29.296Z,100485.53
2022-10-17T16:07:57.903Z,100490.25
2022-10-17T16:10:26.110Z,100485.81
2022-10-17T16:12:53.329Z,100471.41
2022-10-17T16:15:25.841Z,100480.53
2022-10-17T16:17:54.824Z,100473.63
2022-10-17T16:20:23.380Z,100478.06
2022-10-17T16:22:51.658Z,100478.88
2022-10-17T16:25:20.831Z,100487.91
2022-10-17T16:27:50.060Z,100485.13
2022-10-17T16:30:17.668Z,100477.06
2022-10-17T16:32:47.138Z,100461.97
2022-10-17T16:35:26.167Z,100484.97
2022-10-17T16:37:53.444Z,100490.53
2022-10-17T16:40:20.825Z,100494.97
2022-10-17T16:42:47.941Z,100496.34
2022-10-17T16:45:18.674Z,100501.91
2022-10-17T16:47:46.922Z,100510.78
2022-10-17T16:50:14.687Z,100505.22
2022-10-17T16:52:42.387Z,100492.59
2022-10-17T16:55:10.085Z,100505.38
2022-10-17T16:57:37.276Z,100504.69
2022-10-17T17:00:06.664Z,100496.63
2022-10-17T17:02:33.988Z,100501.91
2022-10-17T17:05:01.221Z,100499.09
2022-10-17T17:07:29.871Z,100509.13
2022-10-17T17:09:57.335Z,100500.50
2022-10-17T17:12:24.492Z,100501.91
2022-10-17T17:14:51.646Z,100507.72
2022-10-17T17:17:37.107Z,100509.25
2022-10-17T17:20:07.389Z,100481.38
2022-10-17T17:22:35.003Z,100502.03
2022-10-17T17:25:02.206Z,100509.25
2022-10-17T17:27:30.629Z,100499.94
2022-10-17T17:29:59.735Z,100485.28
2022-10-17T17:32:26.821Z,100501.34
2022-10-17T17:34:54.517Z,100494.13
2022-10-17T17:37:21.576Z,100495.25
2022-10-17T17:39:48.667Z,100474.16
2022-10-17T17:42:15.779Z,100502.44
2022-10-17T17:44:42.880Z,100493.69
2022-10-17T17:47:09.987Z,100493.56
2022-10-17T17:49:37.129Z,100499.69
2022-10-17T17:52:04.516Z,100449.63
2022-10-17T17:54:31.710Z,100500.78
2022-10-17T17:56:58.746Z,100497.16
2022-10-17T17:59:25.863Z,100498.44
2022-10-17T18:01:52.966Z,100493.00
2022-10-17T18:04:20.177Z,100471.38
2022-10-17T18:06:47.307Z,100494.97
2022-10-17T18:09:14.341Z,100493.56
2022-10-17T18:11:42.087Z,100494.41
2022-10-17T18:14:12.514Z,100484.97
2022-10-17T18:16:39.694Z,100498.56
2022-10-17T18:19:09.122Z,100485.53
2022-10-17T18:21:37.467Z,100489.38
2022-10-17T18:24:05.219Z,100497.44
2022-10-17T18:26:32.887Z,100470.00
2022-10-17T18:29:00.623Z,100499.53
2022-10-17T18:31:36.205Z,100500.22
2022-10-17T18:34:05.299Z,100515.47
2022-10-17T18:36:34.070Z,100514.63
2022-10-17T18:39:01.813Z,100506.31
2022-10-17T18:41:29.305Z,100513.09
2022-10-17T18:43:57.257Z,100518.69
2022-10-17T18:46:41.141Z,100522.09
2022-10-17T18:49:10.117Z,100521.84
2022-10-17T18:51:37.969Z,100525.44
2022-10-17T18:54:05.379Z,100523.94
2022-10-17T18:56:32.489Z,100510.47
2022-10-17T18:59:00.361Z,100507.13
2022-10-17T19:01:28.245Z,100526.25
2022-10-17T19:03:58.357Z,100525.31
2022-10-17T19:06:32.006Z,100524.88
2022-10-17T19:09:01.013Z,100523.22
2022-10-17T19:11:30.063Z,100527.94
2022-10-17T19:13:59.924Z,100527.97
2022-10-17T19:16:30.254Z,100528.78
2022-10-17T19:18:59.622Z,100528.09
2022-10-17T19:21:27.162Z,100516.03
2022-10-17T19:23:57.221Z,100512.56
2022-10-17T19:26:25.785Z,100508.25
2022-10-17T19:28:53.890Z,100522.09
2022-10-17T19:31:26.730Z,100524.09
2022-10-17T19:33:55.795Z,100508.97
2022-10-17T19:36:29.061Z,100522.41
2022-10-17T19:39:00.374Z,100479.41
2022-10-17T19:41:28.139Z,100522.13
2022-10-17T19:43:55.213Z,100530.19
2022-10-17T19:46:24.376Z,100521.84
2022-10-17T19:48:52.587Z,100524.06
2022-10-17T19:51:24.366Z,100519.66
2022-10-17T19:53:53.128Z,100522.69
2022-10-17T19:56:23.964Z,100529.63
2022-10-17T19:58:51.881Z,100520.75
2022-10-17T20:01:21.573Z,100524.91
2022-10-17T20:03:49.253Z,100525.44
2022-10-17T20:06:17.286Z,100521.59
2022-10-17T20:08:44.507Z,100518.94
2022-10-17T20:11:19.028Z,100521.19
2022-10-17T20:13:47.888Z,100529.34
2022-10-17T20:16:17.895Z,100524.50
2022-10-17T20:18:44.994Z,100534.06
2022-10-17T20:21:14.537Z,100525.75
2022-10-17T20:23:42.226Z,100518.81
2022-10-17T20:26:25.966Z,100520.75
2022-10-17T20:29:03.683Z,100530.59
2022-10-17T20:31:30.903Z,100532.41
2022-10-17T20:33:59.593Z,100531.28
2022-10-17T20:36:27.136Z,100532.97
2022-10-17T20:38:55.697Z,100545.56
2022-10-17T20:41:26.808Z,100539.63
2022-10-17T20:43:55.383Z,100545.72
2022-10-17T20:46:36.208Z,100543.75
2022-10-17T20:49:07.887Z,100543.63
2022-10-17T20:51:35.915Z,100546.56
2022-10-17T20:54:03.950Z,100544.72
2022-10-17T20:56:32.653Z,100519.88
2022-10-17T20:59:10.920Z,100553.31
2022-10-17T21:01:38.117Z,100525.75
2022-10-17T21:04:33.207Z,100548.63
2022-10-17T21:06:53.596Z,100541.81
2022-10-17T21:09:21.801Z,100542.63
2022-10-17T21:11:52.527Z,100538.78
2022-10-17T21:14:19.739Z,100532.94
2022-10-17T21:16:47.347Z,100541.00
2022-10-17T21:19:15.321Z,100534.06
2022-10-17T21:21:44.745Z,100540.13
2022-10-17T21:24:14.345Z,100537.38
2022-10-17T21:26:43.076Z,100530.31
2022-10-17T21:29:12.146Z,100525.19
2022-10-17T21:31:41.707Z,100526.84
2022-10-17T21:34:11.499Z,100529.06
2022-10-17T21:36:38.972Z,100517.00
2022-10-17T21:39:09.213Z,100523.50
2022-10-17T21:41:36.264Z,100516.88
2022-10-17T21:44:06.778Z,100523.81
2022-10-17T21:46:34.289Z,100521.03
2022-10-17T21:49:01.531Z,100496.63
2022-10-17T21:51:28.779Z,100504.09
2022-10-17T21:53:57.503Z,100527.69
2022-10-17T21:56:28.721Z,100516.84
2022-10-17T21:58:56.431Z,100514.63
2022-10-17T22:01:29.141Z,100520.47
2022-10-17T22:03:58.757Z,100519.88
2022-10-17T22:06:44.513Z,100514.09
2022-10-17T22:09:16.298Z,100507.44
2022-10-17T22:11:47.096Z,100508.41
2022-10-17T22:14:15.417Z,100512.31
2022-10-17T22:16:45.062Z,100501.06
2022-10-17T22:19:13.534Z,100501.34
2022-10-17T22:21:40.986Z,100491.50
2022-10-17T22:24:11.420Z,100502.59
2022-10-17T22:26:39.081Z,100488.88
2022-10-17T22:29:07.430Z,100503.28
2022-10-17T22:31:35.637Z,100504.09
2022-10-17T22:34:04.482Z,100501.78
2022-10-17T22:36:33.712Z,100506.47
2022-10-17T22:39:00.951Z,100506.47
2022-10-17T22:41:28.045Z,100510.22
2022-10-17T22:43:55.079Z,100492.91
2022-10-17T22:46:22.139Z,100498.44
2022-10-17T22:48:49.152Z,100495.81
2022-10-17T22:51:16.621Z,100492.22
2022-10-17T22:53:43.753Z,100498.00
2022-10-17T22:56:19.663Z,100495.81
2022-10-17T22:58:47.257Z,100474.59
2022-10-17T23:01:20.461Z,100472.25
2022-10-17T23:03:48.032Z,100485.41
2022-10-17T23:06:15.180Z,100481.78
2022-10-17T23:08:44.526Z,100488.28
2022-10-17T23:11:11.824Z,100488.28
2022-10-17T23:13:42.048Z,100489.00
2022-10-17T23:16:09.617Z,100484.94
2022-10-17T23:18:39.927Z,100481.91
2022-10-17T23:21:07.392Z,100478.31
2022-10-17T23:23:34.925Z,100470.81
2022-10-17T23:26:13.760Z,100479.81
2022-10-17T23:28:42.228Z,100479.69
2022-10-17T23:31:20.228Z,100458.06
2022-10-17T23:33:49.075Z,100478.03
2022-10-17T23:36:18.805Z,100480.13
2022-10-17T23:38:47.629Z,100479.53
2022-10-17T23:41:15.464Z,100483.84
2022-10-17T23:43:43.273Z,100478.28
2022-10-17T23:46:10.840Z,100470.81
2022-10-17T23:48:38.779Z,100478.97
2022-10-17T23:51:07.542Z,100482.88
2022-10-17T23:53:38.834Z,100488.28
2022-10-17T23:56:10.610Z,100484.44
2022-10-17T23:58:38.830Z,100469.44
